sensor_id;sensor_type;location;lat;lon;timestamp;temperature;humidity
33841;DHT22;20142;28.494;-16.312;2024-03-23T00:55:08;12.40;97.70
33841;DHT22;20142;28.494;-16.312;2024-03-23T01:00:10;12.40;98.10
33841;DHT22;20142;28.494;-16.312;2024-03-23T01:05:13;12.60;98.40
33841;DHT22;20142;28.494;-16.312;2024-03-23T01:10:15;12.80;98.60
33841;DHT22;20142;28.494;-16.312;2024-03-23T01:15:17;12.90;98.40
33841;DHT22;20142;28.494;-16.312;2024-03-23T01:20:18;12.90;98.70
33841;DHT22;20142;28.494;-16.312;2024-03-23T01:25:20;12.80;98.60
33841;DHT22;20142;28.494;-16.312;2024-03-23T01:30:22;12.90;98.50
33841;DHT22;20142;28.494;-16.312;2024-03-23T01:35:23;12.80;98.70
33841;DHT22;20142;28.494;-16.312;2024-03-23T01:40:25;12.80;98.50
33841;DHT22;20142;28.494;-16.312;2024-03-23T01:45:28;12.90;99.00
33841;DHT22;20142;28.494;-16.312;2024-03-23T01:50:31;13.00;98.80
33841;DHT22;20142;28.494;-16.312;2024-03-23T01:55:37;13.20;98.80
33841;DHT22;20142;28.494;-16.312;2024-03-23T02:00:40;13.30;99.10
33841;DHT22;20142;28.494;-16.312;2024-03-23T02:05:41;13.40;98.90
33841;DHT22;20142;28.494;-16.312;2024-03-23T02:10:43;13.40;99.00
33841;DHT22;20142;28.494;-16.312;2024-03-23T02:15:45;13.50;98.90
33841;DHT22;20142;28.494;-16.312;2024-03-23T02:20:47;13.60;98.70
33841;DHT22;20142;28.494;-16.312;2024-03-23T02:25:49;13.60;98.50
33841;DHT22;20142;28.494;-16.312;2024-03-23T02:30:51;13.60;98.60
33841;DHT22;20142;28.494;-16.312;2024-03-23T02:35:56;13.60;98.40
33841;DHT22;20142;28.494;-16.312;2024-03-23T02:41:05;13.60;98.20
33841;DHT22;20142;28.494;-16.312;2024-03-23T02:46:06;13.70;98.20
33841;DHT22;20142;28.494;-16.312;2024-03-23T02:51:09;13.80;98.10
33841;DHT22;20142;28.494;-16.312;2024-03-23T02:56:10;13.80;98.20
33841;DHT22;20142;28.494;-16.312;2024-03-23T03:01:17;13.90;98.30
33841;DHT22;20142;28.494;-16.312;2024-03-23T03:06:27;13.90;98.20
33841;DHT22;20142;28.494;-16.312;2024-03-23T03:11:29;13.90;98.10
33841;DHT22;20142;28.494;-16.312;2024-03-23T03:16:31;13.90;97.80
33841;DHT22;20142;28.494;-16.312;2024-03-23T03:21:33;13.80;97.40
33841;DHT22;20142;28.494;-16.312;2024-03-23T03:26:34;13.90;97.40
33841;DHT22;20142;28.494;-16.312;2024-03-23T03:31:36;13.90;97.00
33841;DHT22;20142;28.494;-16.312;2024-03-23T03:36:38;14.00;97.20
33841;DHT22;20142;28.494;-16.312;2024-03-23T03:41:40;14.00;96.90
33841;DHT22;20142;28.494;-16.312;2024-03-23T03:46:42;14.00;96.40
33841;DHT22;20142;28.494;-16.312;2024-03-23T03:51:44;14.00;96.00
33841;DHT22;20142;28.494;-16.312;2024-03-23T03:56:45;14.00;95.60
33841;DHT22;20142;28.494;-16.312;2024-03-23T04:01:47;14.10;95.80
33841;DHT22;20142;28.494;-16.312;2024-03-23T04:06:49;14.10;95.30
33841;DHT22;20142;28.494;-16.312;2024-03-23T04:11:51;14.10;95.10
33841;DHT22;20142;28.494;-16.312;2024-03-23T04:16:52;14.10;94.80
33841;DHT22;20142;28.494;-16.312;2024-03-23T04:21:54;14.10;94.50
33841;DHT22;20142;28.494;-16.312;2024-03-23T04:26:56;14.10;94.70
33841;DHT22;20142;28.494;-16.312;2024-03-23T04:31:57;14.20;94.60
33841;DHT22;20142;28.494;-16.312;2024-03-23T04:36:59;14.20;94.20
33841;DHT22;20142;28.494;-16.312;2024-03-23T04:42:01;14.30;94.50
33841;DHT22;20142;28.494;-16.312;2024-03-23T04:47:04;14.30;94.30
33841;DHT22;20142;28.494;-16.312;2024-03-23T04:52:06;14.40;94.00
33841;DHT22;20142;28.494;-16.312;2024-03-23T04:57:08;14.20;93.60
33841;DHT22;20142;28.494;-16.312;2024-03-23T05:02:10;14.20;93.40
33841;DHT22;20142;28.494;-16.312;2024-03-23T05:07:11;14.20;93.30
33841;DHT22;20142;28.494;-16.312;2024-03-23T05:12:13;14.20;93.10
33841;DHT22;20142;28.494;-16.312;2024-03-23T05:17:15;14.10;93.00
33841;DHT22;20142;28.494;-16.312;2024-03-23T05:22:17;14.20;92.80
33841;DHT22;20142;28.494;-16.312;2024-03-23T05:27:19;14.20;92.80
33841;DHT22;20142;28.494;-16.312;2024-03-23T05:32:21;14.30;92.90
33841;DHT22;20142;28.494;-16.312;2024-03-23T05:37:23;14.30;92.90
33841;DHT22;20142;28.494;-16.312;2024-03-23T05:42:25;14.30;92.70
33841;DHT22;20142;28.494;-16.312;2024-03-23T05:47:27;14.30;92.60
33841;DHT22;20142;28.494;-16.312;2024-03-23T05:52:30;14.20;92.30
33841;DHT22;20142;28.494;-16.312;2024-03-23T05:57:32;14.30;92.20
33841;DHT22;20142;28.494;-16.312;2024-03-23T06:02:33;14.20;91.90
33841;DHT22;20142;28.494;-16.312;2024-03-23T06:07:35;14.20;92.10
33841;DHT22;20142;28.494;-16.312;2024-03-23T06:12:37;14.30;92.10
33841;DHT22;20142;28.494;-16.312;2024-03-23T06:17:39;14.30;91.90
33841;DHT22;20142;28.494;-16.312;2024-03-23T06:22:40;14.30;92.30
33841;DHT22;20142;28.494;-16.312;2024-03-23T06:27:42;14.40;92.00
33841;DHT22;20142;28.494;-16.312;2024-03-23T06:32:44;14.40;92.20
33841;DHT22;20142;28.494;-16.312;2024-03-23T06:37:46;14.40;91.70
33841;DHT22;20142;28.494;-16.312;2024-03-23T06:42:47;13.80;92.60
33841;DHT22;20142;28.494;-16.312;2024-03-23T06:47:49;13.90;93.40
33841;DHT22;20142;28.494;-16.312;2024-03-23T06:52:52;13.80;93.10
33841;DHT22;20142;28.494;-16.312;2024-03-23T06:57:54;13.80;93.40
33841;DHT22;20142;28.494;-16.312;2024-03-23T07:02:56;13.80;93.60
33841;DHT22;20142;28.494;-16.312;2024-03-23T07:07:57;13.90;93.30
33841;DHT22;20142;28.494;-16.312;2024-03-23T07:12:59;13.90;93.50
33841;DHT22;20142;28.494;-16.312;2024-03-23T07:18:01;14.10;93.70
33841;DHT22;20142;28.494;-16.312;2024-03-23T07:23:02;14.10;93.80
33841;DHT22;20142;28.494;-16.312;2024-03-23T07:28:04;14.10;93.60
33841;DHT22;20142;28.494;-16.312;2024-03-23T07:33:06;14.10;93.80
33841;DHT22;20142;28.494;-16.312;2024-03-23T07:38:08;14.10;93.90
33841;DHT22;20142;28.494;-16.312;2024-03-23T07:43:09;14.30;94.20
33841;DHT22;20142;28.494;-16.312;2024-03-23T07:48:11;14.40;94.40
33841;DHT22;20142;28.494;-16.312;2024-03-23T07:53:13;14.50;94.30
33841;DHT22;20142;28.494;-16.312;2024-03-23T07:58:15;14.60;94.10
33841;DHT22;20142;28.494;-16.312;2024-03-23T08:03:17;14.70;94.00
33841;DHT22;20142;28.494;-16.312;2024-03-23T08:08:18;14.90;94.40
33841;DHT22;20142;28.494;-16.312;2024-03-23T08:13:20;15.30;94.40
33841;DHT22;20142;28.494;-16.312;2024-03-23T08:18:22;15.40;93.60
33841;DHT22;20142;28.494;-16.312;2024-03-23T08:23:25;15.70;93.30
33841;DHT22;20142;28.494;-16.312;2024-03-23T08:28:28;15.80;93.10
33841;DHT22;20142;28.494;-16.312;2024-03-23T08:33:30;16.10;93.50
33841;DHT22;20142;28.494;-16.312;2024-03-23T08:38:32;16.30;93.70
33841;DHT22;20142;28.494;-16.312;2024-03-23T08:43:41;16.40;93.10
33841;DHT22;20142;28.494;-16.312;2024-03-23T08:48:45;16.70;92.80
33841;DHT22;20142;28.494;-16.312;2024-03-23T08:53:49;16.80;92.40
33841;DHT22;20142;28.494;-16.312;2024-03-23T08:58:51;17.00;91.80
33841;DHT22;20142;28.494;-16.312;2024-03-23T09:03:53;17.40;91.80
33841;DHT22;20142;28.494;-16.312;2024-03-23T09:08:54;17.80;91.40
33841;DHT22;20142;28.494;-16.312;2024-03-23T09:13:56;17.80;91.10
33841;DHT22;20142;28.494;-16.312;2024-03-23T09:18:58;17.80;90.70
33841;DHT22;20142;28.494;-16.312;2024-03-23T09:24:00;17.70;90.30
33841;DHT22;20142;28.494;-16.312;2024-03-23T09:29:01;17.80;89.90
33841;DHT22;20142;28.494;-16.312;2024-03-23T09:34:03;17.90;89.30
33841;DHT22;20142;28.494;-16.312;2024-03-23T09:39:06;18.20;88.40
33841;DHT22;20142;28.494;-16.312;2024-03-23T09:44:10;18.10;88.00
33841;DHT22;20142;28.494;-16.312;2024-03-23T09:49:12;18.30;87.50
33841;DHT22;20142;28.494;-16.312;2024-03-23T09:54:13;18.30;86.80
33841;DHT22;20142;28.494;-16.312;2024-03-23T09:59:15;18.40;87.10
33841;DHT22;20142;28.494;-16.312;2024-03-23T10:04:39;18.40;86.40
33841;DHT22;20142;28.494;-16.312;2024-03-23T10:09:42;18.60;86.30
33841;DHT22;20142;28.494;-16.312;2024-03-23T10:14:44;18.60;86.30
33841;DHT22;20142;28.494;-16.312;2024-03-23T10:19:47;18.70;86.40
33841;DHT22;20142;28.494;-16.312;2024-03-23T10:24:50;18.60;86.70
33841;DHT22;20142;28.494;-16.312;2024-03-23T10:30:08;18.40;87.10
33841;DHT22;20142;28.494;-16.312;2024-03-23T10:40:23;18.10;88.20
33841;DHT22;20142;28.494;-16.312;2024-03-23T10:45:26;18.20;87.50
33841;DHT22;20142;28.494;-16.312;2024-03-23T10:50:28;18.20;87.40
33841;DHT22;20142;28.494;-16.312;2024-03-23T10:55:30;18.00;87.80
33841;DHT22;20142;28.494;-16.312;2024-03-23T11:00:33;17.90;88.10
33841;DHT22;20142;28.494;-16.312;2024-03-23T11:05:35;17.80;88.20
33841;DHT22;20142;28.494;-16.312;2024-03-23T11:10:37;17.70;88.10
33841;DHT22;20142;28.494;-16.312;2024-03-23T11:15:39;17.60;88.10
33841;DHT22;20142;28.494;-16.312;2024-03-23T11:20:40;17.70;88.50
33841;DHT22;20142;28.494;-16.312;2024-03-23T11:25:42;17.60;88.00
33841;DHT22;20142;28.494;-16.312;2024-03-23T11:30:44;17.50;88.20
33841;DHT22;20142;28.494;-16.312;2024-03-23T11:35:45;17.30;88.50
33841;DHT22;20142;28.494;-16.312;2024-03-23T11:40:49;17.20;88.80
33841;DHT22;20142;28.494;-16.312;2024-03-23T11:45:52;17.10;88.70
33841;DHT22;20142;28.494;-16.312;2024-03-23T11:50:58;17.20;89.10
33841;DHT22;20142;28.494;-16.312;2024-03-23T11:56:00;17.40;89.20
33841;DHT22;20142;28.494;-16.312;2024-03-23T12:01:03;17.50;89.00
33841;DHT22;20142;28.494;-16.312;2024-03-23T12:06:05;17.60;89.00
33841;DHT22;20142;28.494;-16.312;2024-03-23T12:11:13;17.60;88.90
33841;DHT22;20142;28.494;-16.312;2024-03-23T12:16:18;17.60;89.20
33841;DHT22;20142;28.494;-16.312;2024-03-23T12:21:21;17.60;88.80
33841;DHT22;20142;28.494;-16.312;2024-03-23T12:26:24;17.50;89.20
33841;DHT22;20142;28.494;-16.312;2024-03-23T12:31:25;17.30;89.40
33841;DHT22;20142;28.494;-16.312;2024-03-23T12:36:27;17.20;89.70
33841;DHT22;20142;28.494;-16.312;2024-03-23T12:41:29;16.80;89.20
33841;DHT22;20142;28.494;-16.312;2024-03-23T12:46:30;16.30;89.20
33841;DHT22;20142;28.494;-16.312;2024-03-23T12:51:33;16.20;89.00
33841;DHT22;20142;28.494;-16.312;2024-03-23T12:56:35;16.10;88.80
33841;DHT22;20142;28.494;-16.312;2024-03-23T13:01:37;15.90;88.70
33841;DHT22;20142;28.494;-16.312;2024-03-23T13:06:38;16.00;89.40
33841;DHT22;20142;28.494;-16.312;2024-03-23T13:11:41;16.10;89.50
33841;DHT22;20142;28.494;-16.312;2024-03-23T13:16:42;16.10;88.80
33841;DHT22;20142;28.494;-16.312;2024-03-23T13:21:45;16.10;89.10
33841;DHT22;20142;28.494;-16.312;2024-03-23T13:26:47;16.00;89.30
33841;DHT22;20142;28.494;-16.312;2024-03-23T13:31:49;15.80;88.50
33841;DHT22;20142;28.494;-16.312;2024-03-23T13:36:51;15.20;87.80
33841;DHT22;20142;28.494;-16.312;2024-03-23T13:41:54;14.60;88.40
33841;DHT22;20142;28.494;-16.312;2024-03-23T13:46:58;14.30;89.10
33841;DHT22;20142;28.494;-16.312;2024-03-23T13:52:00;14.30;89.10
33841;DHT22;20142;28.494;-16.312;2024-03-23T13:57:02;14.40;89.60
33841;DHT22;20142;28.494;-16.312;2024-03-23T14:02:04;14.70;90.00
33841;DHT22;20142;28.494;-16.312;2024-03-23T14:07:05;14.80;89.40
33841;DHT22;20142;28.494;-16.312;2024-03-23T14:12:08;15.10;89.80
33841;DHT22;20142;28.494;-16.312;2024-03-23T14:17:10;15.30;89.80
33841;DHT22;20142;28.494;-16.312;2024-03-23T14:22:15;15.70;89.40
33841;DHT22;20142;28.494;-16.312;2024-03-23T14:27:20;16.80;89.40
33841;DHT22;20142;28.494;-16.312;2024-03-23T14:32:22;17.80;89.00
33841;DHT22;20142;28.494;-16.312;2024-03-23T14:37:25;18.60;88.60
33841;DHT22;20142;28.494;-16.312;2024-03-23T14:42:27;21.90;88.20
33841;DHT22;20142;28.494;-16.312;2024-03-23T14:47:28;24.30;83.20
33841;DHT22;20142;28.494;-16.312;2024-03-23T14:52:30;25.90;78.10
33841;DHT22;20142;28.494;-16.312;2024-03-23T14:57:32;27.80;76.90
33841;DHT22;20142;28.494;-16.312;2024-03-23T15:02:34;29.30;71.70
33841;DHT22;20142;28.494;-16.312;2024-03-23T15:07:36;30.20;71.40
33841;DHT22;20142;28.494;-16.312;2024-03-23T15:12:41;31.00;65.00
33841;DHT22;20142;28.494;-16.312;2024-03-23T15:17:42;30.60;63.20
33841;DHT22;20142;28.494;-16.312;2024-03-23T15:22:45;31.30;62.40
33841;DHT22;20142;28.494;-16.312;2024-03-23T15:27:47;31.70;61.00
33841;DHT22;20142;28.494;-16.312;2024-03-23T15:32:49;32.80;59.00
33841;DHT22;20142;28.494;-16.312;2024-03-23T15:37:50;32.70;56.60
33841;DHT22;20142;28.494;-16.312;2024-03-23T15:42:52;33.10;55.80
33841;DHT22;20142;28.494;-16.312;2024-03-23T15:47:54;33.00;53.80
33841;DHT22;20142;28.494;-16.312;2024-03-23T15:52:56;32.60;53.80
33841;DHT22;20142;28.494;-16.312;2024-03-23T15:57:57;32.00;53.50
33841;DHT22;20142;28.494;-16.312;2024-03-23T16:02:59;32.40;53.50
33841;DHT22;20142;28.494;-16.312;2024-03-23T16:08:01;32.30;53.20
33841;DHT22;20142;28.494;-16.312;2024-03-23T16:13:03;32.40;52.90
33841;DHT22;20142;28.494;-16.312;2024-03-23T16:18:05;32.80;52.60
33841;DHT22;20142;28.494;-16.312;2024-03-23T16:23:07;32.60;52.00
33841;DHT22;20142;28.494;-16.312;2024-03-23T16:28:08;31.20;53.50
33841;DHT22;20142;28.494;-16.312;2024-03-23T16:33:10;28.80;55.70
33841;DHT22;20142;28.494;-16.312;2024-03-23T16:38:12;30.90;56.50
33841;DHT22;20142;28.494;-16.312;2024-03-23T16:43:14;33.00;52.50
33841;DHT22;20142;28.494;-16.312;2024-03-23T16:48:15;32.50;53.20
33841;DHT22;20142;28.494;-16.312;2024-03-23T16:53:17;32.80;52.00
33841;DHT22;20142;28.494;-16.312;2024-03-23T16:58:20;33.40;52.00
33841;DHT22;20142;28.494;-16.312;2024-03-23T17:03:22;31.70;52.60
33841;DHT22;20142;28.494;-16.312;2024-03-23T17:08:24;32.50;52.00
33841;DHT22;20142;28.494;-16.312;2024-03-23T17:13:29;33.00;51.60
33841;DHT22;20142;28.494;-16.312;2024-03-23T17:18:33;34.00;50.70
33841;DHT22;20142;28.494;-16.312;2024-03-23T17:23:35;33.80;49.60
33841;DHT22;20142;28.494;-16.312;2024-03-23T17:28:37;32.70;49.90
33841;DHT22;20142;28.494;-16.312;2024-03-23T17:33:39;32.70;49.60
33841;DHT22;20142;28.494;-16.312;2024-03-23T17:38:41;32.30;50.20
33841;DHT22;20142;28.494;-16.312;2024-03-23T17:43:44;32.60;49.70
33841;DHT22;20142;28.494;-16.312;2024-03-23T17:48:48;32.20;50.20
33841;DHT22;20142;28.494;-16.312;2024-03-23T17:53:49;32.40;50.40
33841;DHT22;20142;28.494;-16.312;2024-03-23T17:58:51;31.90;48.60
33841;DHT22;20142;28.494;-16.312;2024-03-23T18:03:53;31.10;51.10
33841;DHT22;20142;28.494;-16.312;2024-03-23T18:08:55;31.90;50.10
33841;DHT22;20142;28.494;-16.312;2024-03-23T18:13:56;30.90;49.50
33841;DHT22;20142;28.494;-16.312;2024-03-23T18:18:59;30.10;50.80
33841;DHT22;20142;28.494;-16.312;2024-03-23T18:24:00;29.10;52.00
33841;DHT22;20142;28.494;-16.312;2024-03-23T18:29:03;26.90;53.60
33841;DHT22;20142;28.494;-16.312;2024-03-23T18:34:05;23.30;58.20
33841;DHT22;20142;28.494;-16.312;2024-03-23T18:39:07;21.40;61.90
33841;DHT22;20142;28.494;-16.312;2024-03-23T18:44:09;20.20;64.70
33841;DHT22;20142;28.494;-16.312;2024-03-23T18:49:10;19.30;66.40
33841;DHT22;20142;28.494;-16.312;2024-03-23T18:54:12;18.50;68.50
33841;DHT22;20142;28.494;-16.312;2024-03-23T18:59:14;17.90;70.60
33841;DHT22;20142;28.494;-16.312;2024-03-23T19:04:16;17.50;72.60
33841;DHT22;20142;28.494;-16.312;2024-03-23T19:09:17;17.10;74.20
33841;DHT22;20142;28.494;-16.312;2024-03-23T19:14:19;16.60;75.30
33841;DHT22;20142;28.494;-16.312;2024-03-23T19:19:21;16.40;76.30
33841;DHT22;20142;28.494;-16.312;2024-03-23T19:24:23;16.00;77.80
33841;DHT22;20142;28.494;-16.312;2024-03-23T19:29:24;15.80;78.50
33841;DHT22;20142;28.494;-16.312;2024-03-23T19:34:26;15.70;79.60
33841;DHT22;20142;28.494;-16.312;2024-03-23T19:39:28;15.60;80.20
33841;DHT22;20142;28.494;-16.312;2024-03-23T19:44:29;15.60;80.80
33841;DHT22;20142;28.494;-16.312;2024-03-23T19:49:31;15.50;81.50
33841;DHT22;20142;28.494;-16.312;2024-03-23T19:54:33;15.60;82.00
33841;DHT22;20142;28.494;-16.312;2024-03-23T19:59:35;15.50;82.50
33841;DHT22;20142;28.494;-16.312;2024-03-23T20:04:36;15.40;83.10
33841;DHT22;20142;28.494;-16.312;2024-03-23T20:09:38;15.30;84.30
33841;DHT22;20142;28.494;-16.312;2024-03-23T20:14:40;15.30;84.50
33841;DHT22;20142;28.494;-16.312;2024-03-23T20:19:45;15.30;85.40
33841;DHT22;20142;28.494;-16.312;2024-03-23T20:24:47;15.20;85.60
33841;DHT22;20142;28.494;-16.312;2024-03-23T20:29:51;15.20;86.40
33841;DHT22;20142;28.494;-16.312;2024-03-23T20:34:53;15.20;86.90
33841;DHT22;20142;28.494;-16.312;2024-03-23T20:39:55;15.30;87.30
33841;DHT22;20142;28.494;-16.312;2024-03-23T20:44:57;15.20;87.80
33841;DHT22;20142;28.494;-16.312;2024-03-23T20:49:59;15.10;88.30
33841;DHT22;20142;28.494;-16.312;2024-03-23T20:55:01;15.10;88.40
33841;DHT22;20142;28.494;-16.312;2024-03-23T21:00:04;15.00;88.60
33841;DHT22;20142;28.494;-16.312;2024-03-23T21:05:09;15.00;88.90
33841;DHT22;20142;28.494;-16.312;2024-03-23T21:10:11;14.90;88.90
33841;DHT22;20142;28.494;-16.312;2024-03-23T21:15:12;14.90;89.20
33841;DHT22;20142;28.494;-16.312;2024-03-23T21:20:14;15.00;89.10
33841;DHT22;20142;28.494;-16.312;2024-03-23T21:25:16;15.00;89.40
33841;DHT22;20142;28.494;-16.312;2024-03-23T21:30:18;14.90;89.90
33841;DHT22;20142;28.494;-16.312;2024-03-23T21:35:20;14.90;90.40
33841;DHT22;20142;28.494;-16.312;2024-03-23T21:40:22;14.90;90.50
33841;DHT22;20142;28.494;-16.312;2024-03-23T21:45:23;15.00;90.90
33841;DHT22;20142;28.494;-16.312;2024-03-23T21:50:25;15.00;91.00
33841;DHT22;20142;28.494;-16.312;2024-03-23T21:55:27;15.00;91.30
33841;DHT22;20142;28.494;-16.312;2024-03-23T22:00:29;15.10;91.20
33841;DHT22;20142;28.494;-16.312;2024-03-23T22:05:31;14.90;91.10
33841;DHT22;20142;28.494;-16.312;2024-03-23T22:10:33;15.00;91.40
33841;DHT22;20142;28.494;-16.312;2024-03-23T22:15:35;14.90;91.70
33841;DHT22;20142;28.494;-16.312;2024-03-23T22:20:37;14.90;91.90
33841;DHT22;20142;28.494;-16.312;2024-03-23T22:25:48;14.90;92.10
33841;DHT22;20142;28.494;-16.312;2024-03-23T22:30:57;14.90;91.70
33841;DHT22;20142;28.494;-16.312;2024-03-23T22:36:00;14.90;91.90
33841;DHT22;20142;28.494;-16.312;2024-03-23T22:41:04;15.00;92.10
33841;DHT22;20142;28.494;-16.312;2024-03-23T22:46:07;14.90;91.90
33841;DHT22;20142;28.494;-16.312;2024-03-23T22:51:12;14.80;91.80
33841;DHT22;20142;28.494;-16.312;2024-03-23T22:56:14;14.80;91.90
33841;DHT22;20142;28.494;-16.312;2024-03-23T23:01:15;14.80;91.80
33841;DHT22;20142;28.494;-16.312;2024-03-23T23:06:19;14.80;91.60
33841;DHT22;20142;28.494;-16.312;2024-03-23T23:11:21;14.80;91.80
33841;DHT22;20142;28.494;-16.312;2024-03-23T23:16:24;14.90;91.80
33841;DHT22;20142;28.494;-16.312;2024-03-23T23:21:25;14.90;91.50
33841;DHT22;20142;28.494;-16.312;2024-03-23T23:26:27;14.90;91.10
33841;DHT22;20142;28.494;-16.312;2024-03-23T23:31:29;14.90;91.10
33841;DHT22;20142;28.494;-16.312;2024-03-23T23:36:31;14.90;90.90
33841;DHT22;20142;28.494;-16.312;2024-03-23T23:41:32;14.90;90.60
33841;DHT22;20142;28.494;-16.312;2024-03-23T23:46:34;14.80;90.70
33841;DHT22;20142;28.494;-16.312;2024-03-23T23:51:36;14.90;90.90
33841;DHT22;20142;28.494;-16.312;2024-03-23T23:56:37;14.90;90.80
